createdAt,value
2023-04-17T00:02:21.671Z,0.63
2023-04-17T00:04:52.206Z,0.60
2023-04-17T00:07:22.633Z,0.97
2023-04-17T00:09:50.989Z,0.83
2023-04-17T00:12:19.346Z,0.53
2023-04-17T00:14:47.804Z,0.50
2023-04-17T00:17:16.082Z,0.50
2023-04-17T00:19:46.050Z,0.50
2023-04-17T00:22:14.400Z,0.70
2023-04-17T00:24:42.659Z,0.50
2023-04-17T00:27:11.265Z,2.73
2023-04-17T00:29:39.572Z,0.50
2023-04-17T00:32:08.317Z,2.27
2023-04-17T00:34:38.088Z,0.60
2023-04-17T00:37:07.955Z,0.90
2023-04-17T00:39:38.435Z,0.60
2023-04-17T00:42:06.884Z,1.20
2023-04-17T00:44:35.308Z,1.03
2023-04-17T00:47:04.658Z,1.23
2023-04-17T00:49:33.712Z,1.23
2023-04-17T00:52:01.999Z,0.70
2023-04-17T00:54:32.232Z,0.70
2023-04-17T00:57:01.508Z,0.57
2023-04-17T00:59:30.417Z,2.53
2023-04-17T01:01:59.207Z,0.80
2023-04-17T01:04:27.665Z,1.73
2023-04-17T01:06:56.047Z,1.97
2023-04-17T01:09:24.734Z,0.80
2023-04-17T01:11:54.591Z,0.83
2023-04-17T01:14:23.025Z,0.53
2023-04-17T01:16:51.331Z,1.07
2023-04-17T01:19:20.362Z,1.53
2023-04-17T01:21:48.681Z,1.60
2023-04-17T01:24:18.543Z,0.83
2023-04-17T01:26:46.987Z,1.63
2023-04-17T01:29:15.421Z,0.97
2023-04-17T01:31:43.894Z,1.43
2023-04-17T01:34:12.381Z,0.70
2023-04-17T01:36:40.840Z,0.60
2023-04-17T01:39:09.671Z,0.93
2023-04-17T01:41:39.907Z,0.90
2023-04-17T01:44:08.203Z,1.73
2023-04-17T01:46:36.640Z,0.70
2023-04-17T01:49:05.444Z,0.93
2023-04-17T01:51:33.827Z,0.90
2023-04-17T01:54:02.202Z,1.00
2023-04-17T01:56:30.957Z,0.80
2023-04-17T01:59:00.695Z,1.50
2023-04-17T02:01:29.125Z,1.07
2023-04-17T02:03:57.667Z,1.67
2023-04-17T02:06:27.470Z,1.20
2023-04-17T02:08:56.117Z,4.10
2023-04-17T02:11:24.527Z,1.00
2023-04-17T02:13:53.278Z,2.93
2023-04-17T02:16:23.297Z,2.03
2023-04-17T02:18:52.027Z,0.97
2023-04-17T02:21:21.243Z,1.30
2023-04-17T02:23:49.765Z,1.13
2023-04-17T02:26:18.455Z,0.50
2023-04-17T02:28:47.056Z,1.17
2023-04-17T02:31:15.438Z,1.57
2023-04-17T02:33:45.318Z,2.63
2023-04-17T02:36:13.781Z,0.70
2023-04-17T02:38:42.366Z,1.53
2023-04-17T02:41:11.159Z,2.07
2023-04-17T02:43:39.560Z,1.80
2023-04-17T02:46:32.748Z,2.03
2023-04-17T02:49:02.559Z,3.67
2023-04-17T02:51:31.167Z,2.80
2023-04-17T02:53:59.482Z,3.63
2023-04-17T02:56:27.813Z,1.57
2023-04-17T02:58:56.192Z,2.87
2023-04-17T03:01:24.612Z,2.53
2023-04-17T03:03:53.349Z,5.80
2023-04-17T03:06:24.161Z,4.07
2023-04-17T03:08:52.511Z,3.73
2023-04-17T03:11:21.530Z,3.80
2023-04-17T03:13:49.879Z,4.47
2023-04-17T03:16:18.636Z,7.43
2023-04-17T03:18:46.921Z,5.20
2023-04-17T03:21:15.404Z,5.10
2023-04-17T03:23:45.252Z,4.60
2023-04-17T03:26:13.951Z,3.53
2023-04-17T03:28:42.332Z,4.53
2023-04-17T03:31:10.664Z,7.47
2023-04-17T03:33:39.080Z,4.10
2023-04-17T03:36:07.822Z,7.67
2023-04-17T03:38:38.922Z,3.77
2023-04-17T03:41:10.147Z,8.47
2023-04-17T03:43:38.551Z,7.53
2023-04-17T03:46:07.410Z,4.63
2023-04-17T03:48:35.817Z,2.27
2023-04-17T03:51:12.566Z,5.83
2023-04-17T03:53:40.835Z,6.00
2023-04-17T03:56:10.899Z,12.33
2023-04-17T03:58:39.481Z,7.43
2023-04-17T04:01:10.988Z,3.07
2023-04-17T04:03:39.524Z,5.67
2023-04-17T04:06:08.337Z,4.87
2023-04-17T04:08:36.665Z,7.50
2023-04-17T04:11:05.068Z,6.20
2023-04-17T04:13:35.081Z,6.70
2023-04-17T04:16:03.415Z,7.23
2023-04-17T04:18:32.145Z,9.80
2023-04-17T04:21:00.610Z,8.00
2023-04-17T04:23:30.723Z,4.77
2023-04-17T04:26:01.874Z,5.23
2023-04-17T04:28:44.474Z,4.20
2023-04-17T04:31:14.744Z,5.43
2023-04-17T04:33:45.441Z,8.43
2023-04-17T04:36:20.853Z,6.73
2023-04-17T04:38:50.485Z,9.53
2023-04-17T04:41:20.085Z,8.70
2023-04-17T04:43:49.981Z,8.13
2023-04-17T04:46:18.527Z,6.40
2023-04-17T04:48:47.304Z,7.83
2023-04-17T04:51:16.063Z,6.90
2023-04-17T04:53:44.580Z,6.20
2023-04-17T04:56:13.028Z,7.30
2023-04-17T04:58:41.408Z,12.50
2023-04-17T05:01:12.309Z,8.37
2023-04-17T05:03:41.242Z,10.00
2023-04-17T05:06:09.720Z,7.00
2023-04-17T05:08:38.300Z,7.20
2023-04-17T05:11:08.124Z,13.90
2023-04-17T05:13:36.687Z,10.23
2023-04-17T05:16:05.214Z,7.97
2023-04-17T05:18:35.222Z,7.43
2023-04-17T05:21:03.862Z,10.30
2023-04-17T05:23:32.180Z,7.07
2023-04-17T05:26:00.626Z,11.90
2023-04-17T05:28:29.760Z,6.37
2023-04-17T05:30:58.781Z,10.60
2023-04-17T05:33:27.107Z,7.07
2023-04-17T05:35:58.252Z,9.33
2023-04-17T05:38:26.720Z,7.63
2023-04-17T05:40:55.295Z,6.53
2023-04-17T05:43:23.727Z,7.50
2023-04-17T05:45:52.119Z,9.17
2023-04-17T05:48:21.038Z,11.07
2023-04-17T05:50:51.715Z,8.23
2023-04-17T05:53:21.947Z,9.40
2023-04-17T05:55:50.900Z,10.10
2023-04-17T06:00:50.845Z,8.37
2023-04-17T06:03:19.777Z,11.70
2023-04-17T06:05:48.427Z,9.33
2023-04-17T06:08:17.352Z,12.23
2023-04-17T06:10:56.051Z,6.00
2023-04-17T06:13:31.440Z,8.13
2023-04-17T06:15:59.752Z,10.10
2023-04-17T06:18:28.195Z,9.70
2023-04-17T06:20:57.009Z,7.60
2023-04-17T06:23:25.447Z,9.97
2023-04-17T06:26:20.558Z,6.87
2023-04-17T06:28:54.836Z,10.50
2023-04-17T06:31:23.235Z,10.00
2023-04-17T06:33:51.772Z,5.10
2023-04-17T06:36:20.476Z,11.93
2023-04-17T06:38:49.082Z,11.80
2023-04-17T06:41:22.954Z,11.23
2023-04-17T06:43:53.300Z,11.17
2023-04-17T06:46:24.050Z,12.50
2023-04-17T06:48:52.540Z,10.90
2023-04-17T06:51:21.758Z,10.07
2023-04-17T06:53:50.205Z,15.67
2023-04-17T06:56:19.508Z,7.90
2023-04-17T06:58:48.374Z,6.00
2023-04-17T07:01:18.343Z,6.50
2023-04-17T07:03:47.110Z,3.77
2023-04-17T07:06:15.721Z,4.40
2023-04-17T07:08:44.235Z,5.47
2023-04-17T07:11:12.719Z,3.17
2023-04-17T07:13:41.099Z,5.70
2023-04-17T07:16:09.686Z,6.77
2023-04-17T07:18:39.575Z,4.13
2023-04-17T07:21:10.580Z,7.23
2023-04-17T07:23:38.956Z,3.40
2023-04-17T07:26:07.456Z,5.90
2023-04-17T07:28:36.034Z,5.87
2023-04-17T07:31:10.408Z,7.90
2023-04-17T07:33:40.636Z,5.83
2023-04-17T07:36:11.312Z,3.70
2023-04-17T07:38:41.044Z,5.00
2023-04-17T07:41:09.751Z,3.80
2023-04-17T07:43:38.070Z,3.67
2023-04-17T07:46:06.610Z,6.60
2023-04-17T07:48:36.749Z,8.97
2023-04-17T07:51:07.687Z,3.87
2023-04-17T07:53:42.089Z,8.67
2023-04-17T07:56:12.240Z,8.50
2023-04-17T07:58:42.034Z,3.70
2023-04-17T08:01:12.920Z,8.30
2023-04-17T08:03:45.039Z,15.30
2023-04-17T08:06:15.510Z,7.03
2023-04-17T08:08:53.831Z,5.00
2023-04-17T08:11:22.342Z,6.77
2023-04-17T08:13:50.754Z,8.60
2023-04-17T08:16:19.489Z,4.63
2023-04-17T08:18:48.295Z,4.90
2023-04-17T08:21:18.198Z,5.43
2023-04-17T08:23:46.527Z,7.47
2023-04-17T08:26:15.101Z,4.67
2023-04-17T08:28:45.962Z,7.00
2023-04-17T08:31:14.952Z,7.00
2023-04-17T08:33:43.414Z,5.73
2023-04-17T08:36:12.077Z,6.77
2023-04-17T08:38:42.191Z,8.53
2023-04-17T08:41:13.362Z,10.10
2023-04-17T08:43:41.926Z,7.37
2023-04-17T08:46:10.562Z,10.83
2023-04-17T08:48:39.462Z,8.00
2023-04-17T08:51:07.917Z,15.33
2023-04-17T08:53:44.672Z,9.87
2023-04-17T08:56:13.422Z,13.47
2023-04-17T08:58:42.326Z,9.80
2023-04-17T09:01:11.749Z,11.57
2023-04-17T09:03:44.133Z,10.57
2023-04-17T09:06:13.023Z,11.00
2023-04-17T09:08:42.262Z,8.17
2023-04-17T09:11:19.622Z,12.27
2023-04-17T09:13:48.546Z,10.63
2023-04-17T09:16:19.801Z,12.90
2023-04-17T09:18:50.530Z,10.17
2023-04-17T09:21:19.695Z,10.60
2023-04-17T09:23:49.652Z,11.60
2023-04-17T09:26:21.147Z,9.17
2023-04-17T09:29:08.549Z,7.70
2023-04-17T09:31:37.968Z,10.07
2023-04-17T09:34:07.594Z,9.93
2023-04-17T09:36:36.995Z,9.47
2023-04-17T09:39:06.256Z,9.40
2023-04-17T09:41:39.338Z,13.70
2023-04-17T09:44:10.414Z,9.40
2023-04-17T09:46:41.087Z,9.93
2023-04-17T09:49:11.939Z,6.87
2023-04-17T09:51:40.852Z,7.53
2023-04-17T09:54:12.528Z,9.93
2023-04-17T09:56:43.257Z,10.10
2023-04-17T09:59:12.068Z,7.87
2023-04-17T10:01:40.956Z,8.13
2023-04-17T10:04:09.832Z,7.47
2023-04-17T10:06:38.483Z,9.67
2023-04-17T10:09:08.035Z,5.73
2023-04-17T10:11:38.721Z,9.73
2023-04-17T10:14:12.776Z,5.33
2023-04-17T10:16:43.963Z,6.40
2023-04-17T10:19:36.872Z,6.27
2023-04-17T10:22:24.307Z,5.60
2023-04-17T10:24:54.102Z,7.27
2023-04-17T10:27:40.544Z,6.30
2023-04-17T10:30:13.119Z,6.27
2023-04-17T10:32:42.250Z,6.70
2023-04-17T10:35:25.855Z,8.20
2023-04-17T10:38:06.008Z,15.53
2023-04-17T10:40:35.984Z,7.10
2023-04-17T10:43:05.550Z,9.47
2023-04-17T10:45:52.818Z,6.77
2023-04-17T10:48:23.628Z,5.20
2023-04-17T10:50:52.861Z,6.13
2023-04-17T10:53:41.556Z,8.90
2023-04-17T10:56:12.118Z,7.50
2023-04-17T10:58:58.357Z,7.97
2023-04-17T11:01:28.941Z,6.87
2023-04-17T11:04:01.248Z,7.67
2023-04-17T11:06:37.586Z,9.63
2023-04-17T11:09:09.605Z,4.40
2023-04-17T11:11:46.249Z,6.30
2023-04-17T11:14:19.752Z,11.07
2023-04-17T11:16:49.741Z,7.30
2023-04-17T11:19:21.504Z,9.50
2023-04-17T11:21:52.096Z,8.50
2023-04-17T11:24:26.653Z,10.97
2023-04-17T11:26:56.406Z,9.10
2023-04-17T11:29:26.395Z,10.40
2023-04-17T11:31:57.668Z,6.40
2023-04-17T11:34:29.164Z,8.83
2023-04-17T11:36:58.528Z,7.33
2023-04-17T11:39:29.121Z,8.30
2023-04-17T11:41:58.385Z,9.93
2023-04-17T11:44:30.656Z,8.47
2023-04-17T11:47:00.123Z,13.43
2023-04-17T11:49:30.758Z,9.53
2023-04-17T11:52:01.924Z,9.33
2023-04-17T11:54:31.362Z,8.60
2023-04-17T11:57:01.737Z,11.30
2023-04-17T11:59:33.918Z,7.37
2023-04-17T12:02:05.143Z,6.53
2023-04-17T12:04:36.770Z,8.20
2023-04-17T12:07:06.833Z,8.23
2023-04-17T12:09:36.144Z,7.53
2023-04-17T12:12:07.016Z,8.20
2023-04-17T12:14:35.691Z,5.23
2023-04-17T12:17:04.249Z,10.73
2023-04-17T12:19:33.745Z,7.90
2023-04-17T12:22:03.871Z,5.23
2023-04-17T12:24:32.401Z,12.20
2023-04-17T12:27:02.186Z,7.97
2023-04-17T12:29:43.053Z,8.90
2023-04-17T12:32:12.340Z,9.33
2023-04-17T12:34:40.914Z,9.60
2023-04-17T12:37:11.911Z,9.77
2023-04-17T12:39:40.515Z,7.53
2023-04-17T12:42:09.025Z,8.40
2023-04-17T12:44:37.599Z,12.77
2023-04-17T12:47:06.414Z,11.57
2023-04-17T12:49:34.952Z,10.37
2023-04-17T12:52:04.054Z,7.30
2023-04-17T12:54:34.600Z,9.33
2023-04-17T12:57:03.709Z,7.10
2023-04-17T12:59:32.580Z,7.57
2023-04-17T13:02:01.839Z,9.53
2023-04-17T13:04:30.511Z,6.63
2023-04-17T13:06:59.024Z,5.33
2023-04-17T13:09:27.728Z,8.50
2023-04-17T13:11:57.568Z,8.57
2023-04-17T13:14:26.985Z,7.30
2023-04-17T13:16:55.741Z,5.23
2023-04-17T13:19:24.425Z,5.87
2023-04-17T13:21:53.907Z,6.80
2023-04-17T13:24:22.677Z,8.77
2023-04-17T13:26:52.585Z,6.43
2023-04-17T13:29:22.385Z,6.03
2023-04-17T13:31:51.122Z,4.53
2023-04-17T13:34:20.466Z,9.97
2023-04-17T13:36:49.083Z,6.30
2023-04-17T13:39:17.776Z,5.57
2023-04-17T13:41:46.414Z,5.40
2023-04-17T13:44:16.342Z,4.20
2023-04-17T13:46:47.581Z,7.30
2023-04-17T13:49:16.106Z,4.67
2023-04-17T13:51:45.363Z,5.17
2023-04-17T13:54:14.050Z,5.30
2023-04-17T13:56:42.912Z,4.37
2023-04-17T13:59:11.661Z,6.50
2023-04-17T14:01:40.499Z,3.80
2023-04-17T14:04:10.902Z,4.73
2023-04-17T14:06:40.896Z,5.73
2023-04-17T14:09:09.400Z,5.10
2023-04-17T14:11:38.077Z,7.70
2023-04-17T14:14:06.921Z,4.40
2023-04-17T14:16:35.650Z,6.00
2023-04-17T14:19:13.455Z,4.03
2023-04-17T14:21:44.645Z,6.23
2023-04-17T14:24:12.986Z,5.57
2023-04-17T14:26:42.029Z,2.60
2023-04-17T14:29:13.948Z,6.77
2023-04-17T14:31:42.764Z,6.60
2023-04-17T14:34:11.687Z,4.57
2023-04-17T14:36:43.548Z,6.37
2023-04-17T14:39:14.805Z,6.53
2023-04-17T14:41:43.405Z,4.43
2023-04-17T14:44:14.086Z,7.43
2023-04-17T14:46:53.081Z,6.57
2023-04-17T14:49:21.973Z,4.73
2023-04-17T14:51:52.629Z,5.67
2023-04-17T14:54:24.068Z,4.90
2023-04-17T14:56:53.136Z,6.20
2023-04-17T14:59:21.679Z,4.47
2023-04-17T15:01:50.497Z,3.53
2023-04-17T15:04:19.183Z,3.03
2023-04-17T15:06:49.305Z,4.03
2023-04-17T15:09:17.855Z,2.87
2023-04-17T15:11:47.820Z,3.10
2023-04-17T15:14:22.531Z,2.87
2023-04-17T15:16:53.561Z,2.30
2023-04-17T15:19:22.029Z,2.63
2023-04-17T15:21:54.767Z,1.60
2023-04-17T15:24:23.163Z,1.77
2023-04-17T15:26:53.078Z,1.50
2023-04-17T15:29:21.752Z,1.33
2023-04-17T15:31:52.566Z,3.63
2023-04-17T15:34:21.332Z,1.27
2023-04-17T15:36:49.897Z,2.30
2023-04-17T15:39:18.478Z,3.70
2023-04-17T15:41:47.031Z,1.57
2023-04-17T15:44:16.996Z,1.63
2023-04-17T15:46:45.345Z,2.03
2023-04-17T15:49:13.821Z,1.97
2023-04-17T15:51:42.238Z,1.30
2023-04-17T15:54:12.041Z,1.70
2023-04-17T15:56:42.613Z,2.93
2023-04-17T15:59:11.143Z,2.10
2023-04-17T16:01:41.097Z,2.10
2023-04-17T16:04:09.886Z,3.43
2023-04-17T16:06:38.289Z,2.30
2023-04-17T16:09:06.882Z,1.60
2023-04-17T16:11:35.451Z,1.87
2023-04-17T16:14:08.242Z,1.70
2023-04-17T16:16:36.878Z,1.83
2023-04-17T16:19:09.703Z,1.53
2023-04-17T16:21:38.196Z,2.73
2023-04-17T16:24:06.876Z,2.20
2023-04-17T16:26:36.897Z,1.70
2023-04-17T16:29:05.340Z,2.50
2023-04-17T16:31:34.093Z,2.67
2023-04-17T16:34:03.328Z,3.60
2023-04-17T16:36:45.394Z,2.37
2023-04-17T16:39:16.311Z,2.00
2023-04-17T16:41:45.029Z,4.57
2023-04-17T16:44:13.678Z,3.00
2023-04-17T16:47:03.155Z,2.07
2023-04-17T16:49:31.013Z,2.03
2023-04-17T16:51:59.681Z,2.10
2023-04-17T16:54:29.764Z,2.33
2023-04-17T16:56:58.530Z,4.17
2023-04-17T16:59:26.945Z,1.93
2023-04-17T17:01:55.776Z,2.50
2023-04-17T17:04:30.237Z,2.57
2023-04-17T17:06:59.402Z,2.23
2023-04-17T17:09:30.209Z,4.50
2023-04-17T17:12:04.926Z,3.83
2023-04-17T17:14:39.156Z,3.47
2023-04-17T17:17:18.452Z,3.43
2023-04-17T17:19:47.014Z,2.50
2023-04-17T17:22:15.862Z,2.80
2023-04-17T17:24:46.074Z,3.20
2023-04-17T17:27:18.151Z,3.13
2023-04-17T17:29:46.822Z,4.93
2023-04-17T17:32:16.767Z,2.90
2023-04-17T17:34:45.789Z,4.70
2023-04-17T17:37:15.383Z,3.70
2023-04-17T17:39:46.578Z,6.77
2023-04-17T17:42:16.724Z,2.77
2023-04-17T17:44:45.210Z,2.40
2023-04-17T17:47:17.627Z,2.80
2023-04-17T17:49:48.936Z,5.70
2023-04-17T17:52:23.543Z,2.83
2023-04-17T17:54:52.056Z,2.37
2023-04-17T17:57:21.824Z,2.27
2023-04-17T17:59:51.993Z,4.30
2023-04-17T18:02:26.573Z,5.03
2023-04-17T18:04:56.518Z,2.80
2023-04-17T18:07:26.393Z,2.90
2023-04-17T18:09:56.866Z,2.07
2023-04-17T18:12:26.827Z,2.53
2023-04-17T18:14:55.370Z,2.40
2023-04-17T18:17:26.969Z,3.67
2023-04-17T18:19:55.428Z,2.17
2023-04-17T18:22:23.790Z,1.80
2023-04-17T18:24:58.994Z,4.23
2023-04-17T18:27:31.925Z,3.20
2023-04-17T18:30:00.458Z,4.77
2023-04-17T18:32:31.128Z,3.67
2023-04-17T18:34:59.712Z,3.50
2023-04-17T18:37:28.344Z,4.13
2023-04-17T18:39:56.973Z,3.80
2023-04-17T18:42:25.588Z,3.87
2023-04-17T18:44:55.655Z,3.00
2023-04-17T18:47:24.042Z,2.83
2023-04-17T18:49:53.997Z,1.73
2023-04-17T18:52:23.250Z,2.83
2023-04-17T18:54:51.586Z,3.00
2023-04-17T18:57:20.987Z,2.60
2023-04-17T18:59:49.472Z,3.37
2023-04-17T19:02:19.434Z,3.30
2023-04-17T19:04:48.208Z,3.70
2023-04-17T19:07:16.849Z,3.70
2023-04-17T19:09:46.460Z,4.83
2023-04-17T19:12:14.971Z,4.03
2023-04-17T19:14:43.511Z,2.63
2023-04-17T19:17:12.664Z,8.87
2023-04-17T19:19:42.477Z,8.40
2023-04-17T19:22:10.851Z,3.20
2023-04-17T19:24:40.315Z,3.10
2023-04-17T19:27:08.727Z,3.43
2023-04-17T19:29:37.281Z,3.70
2023-04-17T19:32:05.925Z,4.10
2023-04-17T19:34:34.353Z,3.67
2023-04-17T19:37:04.120Z,4.63
2023-04-17T19:39:32.658Z,4.00
2023-04-17T19:42:01.447Z,3.13
2023-04-17T19:44:36.115Z,5.40
2023-04-17T19:47:04.759Z,1.97
2023-04-17T19:49:33.442Z,7.80
2023-04-17T19:52:02.061Z,4.23
2023-04-17T19:54:32.175Z,3.73
2023-04-17T19:57:00.396Z,6.67
2023-04-17T19:59:28.876Z,6.13
2023-04-17T20:01:57.456Z,4.90
2023-04-17T20:04:26.017Z,4.30
2023-04-17T20:06:54.390Z,8.13
2023-04-17T20:09:22.696Z,6.07
2023-04-17T20:11:52.380Z,6.90
2023-04-17T20:14:20.814Z,5.47
2023-04-17T20:16:50.068Z,5.20
2023-04-17T20:19:18.582Z,5.47
2023-04-17T20:21:47.584Z,4.70
2023-04-17T20:24:16.527Z,6.90
2023-04-17T20:26:45.575Z,9.37
2023-04-17T20:29:15.647Z,4.73
2023-04-17T20:31:44.303Z,6.60
2023-04-17T20:34:12.743Z,9.47
2023-04-17T20:36:41.596Z,9.43
2023-04-17T20:39:11.263Z,4.47
2023-04-17T20:41:40.165Z,6.80
2023-04-17T20:44:08.638Z,7.93
2023-04-17T20:46:39.557Z,4.87
2023-04-17T20:49:08.059Z,5.97
2023-04-17T20:51:36.559Z,7.20
2023-04-17T20:54:05.001Z,5.30
2023-04-17T20:56:33.389Z,8.80
2023-04-17T20:59:01.772Z,6.27
2023-04-17T21:01:30.372Z,4.20
2023-04-17T21:04:00.610Z,6.47
2023-04-17T21:06:29.498Z,8.50
2023-04-17T21:08:58.384Z,6.43
2023-04-17T21:11:26.877Z,7.90
2023-04-17T21:13:55.580Z,7.90
2023-04-17T21:16:24.258Z,13.90
2023-04-17T21:18:55.657Z,4.20
2023-04-17T21:21:26.297Z,5.90
2023-04-17T21:23:54.758Z,7.47
2023-04-17T21:26:23.017Z,7.90
2023-04-17T21:28:52.205Z,5.23
2023-04-17T21:31:21.107Z,4.20
2023-04-17T21:33:49.427Z,9.70
2023-04-17T21:36:19.460Z,9.20
2023-04-17T21:38:49.386Z,6.53
2023-04-17T21:41:18.940Z,5.07
2023-04-17T21:43:47.271Z,5.60
2023-04-17T21:46:16.429Z,7.47
2023-04-17T21:48:44.805Z,3.20
2023-04-17T21:51:13.362Z,5.40
2023-04-17T21:53:43.725Z,3.10
2023-04-17T21:56:13.565Z,4.47
2023-04-17T21:58:42.460Z,4.93
2023-04-17T22:01:24.963Z,4.73
2023-04-17T22:03:53.468Z,6.40
2023-04-17T22:06:21.795Z,5.40
2023-04-17T22:08:50.481Z,5.23
2023-04-17T22:11:20.660Z,5.60
2023-04-17T22:13:49.124Z,4.00
2023-04-17T22:16:17.499Z,2.37
2023-04-17T22:18:45.914Z,3.50
2023-04-17T22:21:15.007Z,2.23
2023-04-17T22:23:43.470Z,3.27
2023-04-17T22:26:11.993Z,3.60
2023-04-17T22:28:41.835Z,3.10
2023-04-17T22:31:11.942Z,3.63
2023-04-17T22:33:40.883Z,4.40
2023-04-17T22:36:09.250Z,1.97
2023-04-17T22:38:39.810Z,4.00
2023-04-17T22:41:08.582Z,3.40
2023-04-17T22:43:36.935Z,2.63
2023-04-17T22:46:06.963Z,4.60
2023-04-17T22:48:35.974Z,5.27
2023-04-17T22:51:04.465Z,5.83
2023-04-17T22:53:32.718Z,4.53
2023-04-17T22:56:01.794Z,3.50
2023-04-17T22:58:31.394Z,2.63
2023-04-17T23:00:59.779Z,4.07
2023-04-17T23:03:29.724Z,1.90
2023-04-17T23:05:58.002Z,4.53
2023-04-17T23:08:26.326Z,3.87
2023-04-17T23:10:59.758Z,3.53
2023-04-17T23:13:29.554Z,4.17
2023-04-17T23:15:58.018Z,3.10
2023-04-17T23:18:26.410Z,5.00
2023-04-17T23:20:56.231Z,4.97
2023-04-17T23:23:24.788Z,10.60
2023-04-17T23:25:57.716Z,8.83
2023-04-17T23:28:30.641Z,4.57
2023-04-17T23:30:59.141Z,5.27
2023-04-17T23:33:27.417Z,5.97
2023-04-17T23:35:57.253Z,3.37
2023-04-17T23:38:26.672Z,4.30
2023-04-17T23:40:54.952Z,3.97
2023-04-17T23:43:23.296Z,5.23
2023-04-17T23:45:51.625Z,4.53
2023-04-17T23:48:19.987Z,4.03
2023-04-17T23:50:48.964Z,4.93
2023-04-17T23:53:18.865Z,4.07
2023-04-17T23:55:47.123Z,6.80
2023-04-17T23:58:15.597Z,5.17
